Time;durP1;ratioP1;P1;durP2;ratioP2;P2;SDS_P1;SDS_P2;PMS_P1;PMS_P2;Temp;Humidity;BMP_temperature;BMP_pressure;BME280_temperature;BME280_humidity;BME280_pressure;Samples;Min_cycle;Max_cycle;Signal;HPM_P1;HPM_P2
2022/05/19 00:02:19;;;;;;;20.23;14.82;;;;;;;;;;4995435;28;20071;-63
2022/05/19 00:04:45;;;;;;;23.80;14.48;;;;;;;;;;4930122;29;20028;-63
2022/05/19 00:07:12;;;;;;;21.02;15.05;;;;;;;;;;4929520;29;20085;-62
2022/05/19 00:09:38;;;;;;;21.85;15.15;;;;;;;;;;4929888;29;20027;-64
2022/05/19 00:12:06;;;;;;;22.42;14.98;;;;;;;;;;4929640;29;20050;-63
2022/05/19 00:14:32;;;;;;;21.23;13.65;;;;;;;;;;4929697;29;20061;-64
2022/05/19 00:16:58;;;;;;;20.73;13.60;;;;;;;;;;4929749;29;20059;-63
2022/05/19 00:19:25;;;;;;;18.58;12.35;;;;;;;;;;4930135;29;20368;-60
2022/05/19 00:21:51;;;;;;;18.00;11.68;;;;;;;;;;4929798;29;20095;-63
2022/05/19 00:24:17;;;;;;;22.27;11.88;;;;;;;;;;4930896;29;20085;-62
2022/05/19 00:26:43;;;;;;;18.60;12.77;;;;;;;;;;4930378;29;20103;-62
2022/05/19 00:29:09;;;;;;;19.52;12.48;;;;;;;;;;4930426;29;20032;-64
2022/05/19 00:31:36;;;;;;;17.88;11.52;;;;;;;;;;4960954;23;20097;-65
2022/05/19 00:34:02;;;;;;;19.85;11.77;;;;;;;;;;4948467;28;20122;-64
2022/05/19 00:36:29;;;;;;;17.90;11.07;;;;;;;;;;4948679;28;20024;-65
2022/05/19 00:38:55;;;;;;;17.77;11.15;;;;;;;;;;4948498;29;20028;-65
2022/05/19 00:41:21;;;;;;;18.35;12.02;;;;;;;;;;4949845;29;20360;-65
2022/05/19 00:43:56;;;;;;;20.02;12.20;;;;;;;;;;5016227;28;20019;-65
2022/05/19 00:46:24;;;;;;;18.88;12.18;;;;;;;;;;4950099;29;20104;-65
2022/05/19 00:48:53;;;;;;;21.52;13.73;;;;;;;;;;4949935;28;20027;-65
2022/05/19 00:51:20;;;;;;;19.73;12.25;;;;;;;;;;4949838;29;20027;-65
2022/05/19 00:53:48;;;;;;;22.50;12.90;;;;;;;;;;4949726;29;20031;-65
2022/05/19 00:56:26;;;;;;;19.53;12.53;;;;;;;;;;4949957;29;20029;-65
2022/05/19 00:59:08;;;;;;;20.00;13.32;;;;;;;;;;5016016;28;20370;-65
2022/05/19 01:01:36;;;;;;;19.92;13.25;;;;;;;;;;4949652;29;20027;-63
2022/05/19 01:04:11;;;;;;;21.40;12.98;;;;;;;;;;4949807;29;20031;-62
2022/05/19 01:06:39;;;;;;;21.55;13.18;;;;;;;;;;4949720;29;20035;-62
2022/05/19 01:09:09;;;;;;;20.73;13.07;;;;;;;;;;5015792;28;20027;-64
2022/05/19 01:11:38;;;;;;;22.98;13.07;;;;;;;;;;4949500;28;20459;-63
2022/05/19 01:14:05;;;;;;;19.40;13.50;;;;;;;;;;4949490;28;20034;-63
2022/05/19 01:16:31;;;;;;;21.17;14.23;;;;;;;;;;5015427;28;20518;-63
2022/05/19 01:18:57;;;;;;;21.05;13.75;;;;;;;;;;4949082;29;20035;-63
2022/05/19 01:21:26;;;;;;;20.15;13.20;;;;;;;;;;4949225;29;20023;-63
2022/05/19 01:24:16;;;;;;;19.42;11.95;;;;;;;;;;4949576;28;20058;-62
2022/05/19 01:26:49;;;;;;;20.30;13.73;;;;;;;;;;4952282;28;20062;-61
2022/05/19 01:29:17;;;;;;;17.73;11.20;;;;;;;;;;5018704;28;20035;-63
2022/05/19 01:31:49;;;;;;;20.90;12.10;;;;;;;;;;4952387;28;20064;-63
2022/05/19 01:34:17;;;;;;;18.88;11.73;;;;;;;;;;5018969;28;20043;-63
2022/05/19 01:36:43;;;;;;;21.43;12.03;;;;;;;;;;5019047;28;20031;-63
2022/05/19 01:39:11;;;;;;;18.67;11.80;;;;;;;;;;4952336;29;20043;-63
2022/05/19 01:41:49;;;;;;;20.75;12.60;;;;;;;;;;4952595;28;20024;-62
2022/05/19 01:44:15;;;;;;;;;;;;;;;;;;5019189;28;20042;-63
2022/05/19 01:46:43;;;;;;;18.55;12.85;;;;;;;;;;4952418;28;19906;-64
2022/05/19 01:49:18;;;;;;;18.83;12.30;;;;;;;;;;5018503;28;20442;-63
2022/05/19 01:51:44;;;;;;;18.85;11.70;;;;;;;;;;4952340;28;20035;-62
2022/05/19 01:54:10;;;;;;;19.30;12.43;;;;;;;;;;4952496;29;20027;-63
2022/05/19 01:56:40;;;;;;;20.55;13.13;;;;;;;;;;4952423;28;20110;-64
2022/05/19 01:59:27;;;;;;;19.65;12.07;;;;;;;;;;4952230;29;20035;-63
2022/05/19 02:02:13;;;;;;;18.55;12.20;;;;;;;;;;4952089;29;20027;-63
2022/05/19 02:04:59;;;;;;;18.45;12.90;;;;;;;;;;4952203;29;20394;-64
2022/05/19 02:07:27;;;;;;;17.85;12.00;;;;;;;;;;4951664;28;20499;-64
2022/05/19 02:09:56;;;;;;;19.47;12.20;;;;;;;;;;4951868;29;20034;-63
2022/05/19 02:12:23;;;;;;;20.08;11.88;;;;;;;;;;4951942;29;20206;-62
2022/05/19 02:14:51;;;;;;;18.63;12.77;;;;;;;;;;4951827;29;20069;-62
2022/05/19 02:17:19;;;;;;;18.15;11.85;;;;;;;;;;4951794;28;20118;-59
2022/05/19 02:19:47;;;;;;;18.40;11.65;;;;;;;;;;4952243;28;20059;-62
2022/05/19 02:22:16;;;;;;;19.30;12.75;;;;;;;;;;4951842;29;20035;-63
2022/05/19 02:24:47;;;;;;;17.92;11.90;;;;;;;;;;4951614;29;20073;-66
2022/05/19 02:27:25;;;;;;;17.45;11.60;;;;;;;;;;5018254;28;20063;-63
2022/05/19 02:29:51;;;;;;;18.17;11.95;;;;;;;;;;4951971;28;20093;-63
2022/05/19 02:32:17;;;;;;;19.98;11.82;;;;;;;;;;4951654;29;20035;-64
2022/05/19 02:34:43;;;;;;;19.20;12.32;;;;;;;;;;4952361;28;20034;-63
2022/05/19 02:37:09;;;;;;;21.80;11.48;;;;;;;;;;5017385;28;20024;-61
2022/05/19 02:39:35;;;;;;;19.10;11.65;;;;;;;;;;4951479;28;20027;-63
2022/05/19 02:42:01;;;;;;;19.10;12.15;;;;;;;;;;4951948;28;20023;-62
2022/05/19 02:44:27;;;;;;;20.02;11.77;;;;;;;;;;5017789;28;20466;-63
2022/05/19 02:46:53;;;;;;;20.00;11.95;;;;;;;;;;5018006;28;20152;-63
2022/05/19 02:49:19;;;;;;;19.88;11.60;;;;;;;;;;5017709;28;20039;-64
2022/05/19 02:51:45;;;;;;;19.40;11.98;;;;;;;;;;4951918;29;20062;-64
2022/05/19 02:54:11;;;;;;;18.23;11.57;;;;;;;;;;4954459;28;20027;-64
2022/05/19 02:56:38;;;;;;;18.60;11.50;;;;;;;;;;4951667;29;20023;-63
2022/05/19 02:59:04;;;;;;;19.25;12.48;;;;;;;;;;4951064;29;20031;-63
2022/05/19 03:01:30;;;;;;;18.83;12.80;;;;;;;;;;5017342;28;20032;-64
2022/05/19 03:03:56;;;;;;;17.75;11.80;;;;;;;;;;4951611;29;20034;-64
2022/05/19 03:06:22;;;;;;;20.08;12.10;;;;;;;;;;5017180;28;20114;-63
2022/05/19 03:08:48;;;;;;;18.67;12.00;;;;;;;;;;4951045;28;20038;-63
2022/05/19 03:11:14;;;;;;;22.35;12.70;;;;;;;;;;4951320;29;20047;-63
2022/05/19 03:13:40;;;;;;;19.13;12.55;;;;;;;;;;4951199;28;20387;-64
2022/05/19 03:16:07;;;;;;;17.92;11.88;;;;;;;;;;4951255;28;20071;-64
2022/05/19 03:18:33;;;;;;;22.98;12.55;;;;;;;;;;4950834;28;20031;-64
2022/05/19 03:20:59;;;;;;;19.08;12.10;;;;;;;;;;4950826;29;20049;-64
2022/05/19 03:23:25;;;;;;;20.05;11.70;;;;;;;;;;4950924;28;20038;-63
2022/05/19 03:25:51;;;;;;;19.02;12.05;;;;;;;;;;4950737;29;20153;-64
2022/05/19 03:28:17;;;;;;;21.33;12.88;;;;;;;;;;4950375;28;20034;-64
2022/05/19 03:30:43;;;;;;;19.75;11.93;;;;;;;;;;4950737;28;20406;-64
2022/05/19 03:33:09;;;;;;;18.67;12.15;;;;;;;;;;4950847;29;20030;-64
2022/05/19 03:35:35;;;;;;;19.42;12.25;;;;;;;;;;4950674;29;20031;-63
2022/05/19 03:38:01;;;;;;;20.70;12.10;;;;;;;;;;4950434;29;20028;-63
2022/05/19 03:40:27;;;;;;;19.42;12.07;;;;;;;;;;4950623;29;20059;-63
2022/05/19 03:42:53;;;;;;;19.83;12.98;;;;;;;;;;4950933;28;20058;-64
2022/05/19 03:45:19;;;;;;;19.92;13.32;;;;;;;;;;5016804;28;20482;-64
2022/05/19 03:47:45;;;;;;;20.73;13.20;;;;;;;;;;4949907;29;20031;-64
2022/05/19 03:50:11;;;;;;;19.23;12.70;;;;;;;;;;4950658;28;20030;-64
2022/05/19 03:52:38;;;;;;;18.88;12.80;;;;;;;;;;4950555;29;20019;-63
2022/05/19 03:55:04;;;;;;;19.52;12.40;;;;;;;;;;4950391;29;20426;-63
2022/05/19 03:57:30;;;;;;;18.13;11.63;;;;;;;;;;5016075;28;20039;-64
2022/05/19 03:59:56;;;;;;;19.27;12.15;;;;;;;;;;4950268;28;20548;-64
2022/05/19 04:02:22;;;;;;;19.58;11.98;;;;;;;;;;5016119;28;20050;-64
2022/05/19 04:04:49;;;;;;;18.83;12.30;;;;;;;;;;4950307;29;20076;-65
2022/05/19 04:07:15;;;;;;;19.83;13.05;;;;;;;;;;4950191;29;20027;-64
2022/05/19 04:09:42;;;;;;;21.48;12.25;;;;;;;;;;4950514;29;20367;-64
2022/05/19 04:12:08;;;;;;;18.55;12.40;;;;;;;;;;4950263;28;20023;-64
2022/05/19 04:14:34;;;;;;;18.25;12.25;;;;;;;;;;5015938;28;20023;-64
2022/05/19 04:17:00;;;;;;;17.70;11.65;;;;;;;;;;5015925;28;20027;-65
2022/05/19 04:19:26;;;;;;;18.75;12.40;;;;;;;;;;5015545;28;20040;-64
2022/05/19 04:21:52;;;;;;;23.60;13.02;;;;;;;;;;4950035;29;20036;-61
2022/05/19 04:24:18;;;;;;;18.42;12.85;;;;;;;;;;4949928;28;20101;-64
2022/05/19 04:26:44;;;;;;;18.63;12.88;;;;;;;;;;4949824;29;20066;-65
2022/05/19 04:29:10;;;;;;;26.60;14.00;;;;;;;;;;4949713;29;20050;-64
2022/05/19 04:31:36;;;;;;;19.23;13.18;;;;;;;;;;4949481;29;20483;-63
2022/05/19 04:34:05;;;;;;;20.08;13.00;;;;;;;;;;4949655;28;20027;-64
2022/05/19 04:36:31;;;;;;;21.33;12.55;;;;;;;;;;4950222;28;20137;-63
2022/05/19 04:38:57;;;;;;;21.75;13.40;;;;;;;;;;4949424;29;20023;-64
2022/05/19 04:41:23;;;;;;;20.58;12.65;;;;;;;;;;4949655;28;20386;-63
2022/05/19 04:43:49;;;;;;;22.63;13.85;;;;;;;;;;4949852;28;20081;-64
2022/05/19 04:46:15;;;;;;;20.92;13.50;;;;;;;;;;4949576;28;20020;-64
2022/05/19 04:48:40;;;;;;;22.52;13.50;;;;;;;;;;4949202;28;20054;-63
2022/05/19 04:51:06;;;;;;;22.33;13.73;;;;;;;;;;4949627;28;20039;-64
2022/05/19 04:53:32;;;;;;;21.83;13.18;;;;;;;;;;4949473;29;20034;-64
2022/05/19 04:55:58;;;;;;;22.23;13.30;;;;;;;;;;4949378;29;20031;-64
2022/05/19 04:58:24;;;;;;;19.20;12.77;;;;;;;;;;4949059;29;20024;-65
2022/05/19 05:00:51;;;;;;;24.25;13.38;;;;;;;;;;4950931;29;20038;-63
2022/05/19 05:03:17;;;;;;;21.00;12.98;;;;;;;;;;4952618;28;20026;-64
2022/05/19 05:05:43;;;;;;;21.45;14.50;;;;;;;;;;4952563;28;20050;-63
2022/05/19 05:08:09;;;;;;;20.52;13.55;;;;;;;;;;5018888;28;20024;-64
2022/05/19 05:10:35;;;;;;;22.42;13.80;;;;;;;;;;4952199;28;20027;-64
2022/05/19 05:13:06;;;;;;;19.98;13.40;;;;;;;;;;4952688;29;20034;-63
2022/05/19 05:15:32;;;;;;;21.33;13.25;;;;;;;;;;4952466;28;20023;-64
2022/05/19 05:17:58;;;;;;;20.50;13.27;;;;;;;;;;4952460;28;20038;-64
2022/05/19 05:20:24;;;;;;;19.58;13.75;;;;;;;;;;4952246;28;20093;-63
2022/05/19 05:22:50;;;;;;;20.52;12.93;;;;;;;;;;4951961;28;20444;-63
2022/05/19 05:25:16;;;;;;;19.45;12.68;;;;;;;;;;4952382;29;20110;-64
2022/05/19 05:27:42;;;;;;;18.65;12.82;;;;;;;;;;4951721;29;20019;-64
2022/05/19 05:30:09;;;;;;;19.33;13.13;;;;;;;;;;4951387;28;20035;-63
2022/05/19 05:32:35;;;;;;;18.80;13.00;;;;;;;;;;4952108;29;20089;-61
2022/05/19 05:35:01;;;;;;;18.73;13.45;;;;;;;;;;4951985;29;20038;-61
2022/05/19 05:37:27;;;;;;;17.55;13.05;;;;;;;;;;4951431;29;20713;-64
2022/05/19 05:39:53;;;;;;;18.50;12.73;;;;;;;;;;4951378;29;20039;-62
2022/05/19 05:42:19;;;;;;;17.48;12.40;;;;;;;;;;4951343;28;20038;-62
2022/05/19 05:44:45;;;;;;;19.10;12.60;;;;;;;;;;5018030;28;20502;-63
2022/05/19 05:47:11;;;;;;;19.30;12.70;;;;;;;;;;4951602;28;20028;-64
2022/05/19 05:49:38;;;;;;;21.90;14.52;;;;;;;;;;4951827;28;20023;-64
2022/05/19 05:52:05;;;;;;;18.92;12.95;;;;;;;;;;4951397;29;20027;-64
2022/05/19 05:54:31;;;;;;;17.90;12.52;;;;;;;;;;4951582;28;20048;-63
2022/05/19 05:56:57;;;;;;;18.08;12.90;;;;;;;;;;4951583;28;20045;-63
2022/05/19 05:59:23;;;;;;;21.80;12.30;;;;;;;;;;4951245;29;20035;-63
2022/05/19 06:01:49;;;;;;;23.10;13.40;;;;;;;;;;4950694;29;20031;-64
2022/05/19 06:04:15;;;;;;;18.92;13.05;;;;;;;;;;4950325;29;20449;-63
2022/05/19 06:06:45;;;;;;;18.17;13.20;;;;;;;;;;4951536;28;20478;-63
2022/05/19 06:09:11;;;;;;;19.20;13.30;;;;;;;;;;4950644;29;20030;-62
2022/05/19 06:11:37;;;;;;;18.70;13.18;;;;;;;;;;4950780;28;20033;-63
2022/05/19 06:14:04;;;;;;;17.95;13.27;;;;;;;;;;4951102;28;20441;-64
2022/05/19 06:16:30;;;;;;;17.23;13.07;;;;;;;;;;4951134;28;20487;-64
2022/05/19 06:18:56;;;;;;;18.88;13.10;;;;;;;;;;4951034;28;20039;-63
2022/05/19 06:21:22;;;;;;;17.40;12.88;;;;;;;;;;5017172;28;20028;-62
2022/05/19 06:23:48;;;;;;;17.42;12.65;;;;;;;;;;4951384;28;20429;-63
2022/05/19 06:26:14;;;;;;;17.70;12.88;;;;;;;;;;4951043;28;20107;-62
2022/05/19 06:28:40;;;;;;;20.10;12.45;;;;;;;;;;5016978;28;20122;-63
2022/05/19 06:31:06;;;;;;;19.92;12.77;;;;;;;;;;4950642;28;20487;-64
2022/05/19 06:33:35;;;;;;;19.35;12.80;;;;;;;;;;4974648;23;20043;-63
2022/05/19 06:36:03;;;;;;;17.70;13.18;;;;;;;;;;4952269;28;20533;-64
2022/05/19 06:38:29;;;;;;;18.42;12.60;;;;;;;;;;4934594;29;20039;-64
2022/05/19 06:42:00;;;;;;;17.80;12.93;;;;;;;;;;4952481;29;20027;-63
2022/05/19 06:43:41;;;;;;;18.77;13.63;;;;;;;;;;4952100;28;20540;-60
2022/05/19 06:46:07;;;;;;;17.80;13.57;;;;;;;;;;4952517;28;20023;-63
2022/05/19 06:48:33;;;;;;;18.77;13.93;;;;;;;;;;4952318;29;20101;-63
2022/05/19 06:50:59;;;;;;;19.17;13.32;;;;;;;;;;4952338;28;20023;-63
2022/05/19 06:53:25;;;;;;;20.52;13.00;;;;;;;;;;4952214;28;20027;-62
2022/05/19 06:55:51;;;;;;;20.58;14.23;;;;;;;;;;5018027;28;20050;-63
2022/05/19 06:58:17;;;;;;;18.23;13.57;;;;;;;;;;4951912;28;20031;-63
2022/05/19 07:00:43;;;;;;;19.02;13.63;;;;;;;;;;5018272;28;20024;-63
2022/05/19 07:03:09;;;;;;;18.25;12.90;;;;;;;;;;4952340;29;20027;-64
2022/05/19 07:05:36;;;;;;;17.58;13.63;;;;;;;;;;5018503;28;20053;-64
2022/05/19 07:08:03;;;;;;;18.92;12.98;;;;;;;;;;5017913;28;20035;-64
2022/05/19 07:10:29;;;;;;;19.30;14.13;;;;;;;;;;4952511;28;20065;-64
2022/05/19 07:12:56;;;;;;;18.48;13.70;;;;;;;;;;4952516;29;20081;-64
2022/05/19 07:15:22;;;;;;;19.73;13.45;;;;;;;;;;4952146;29;20033;-64
2022/05/19 07:17:49;;;;;;;18.40;13.30;;;;;;;;;;5017998;28;20137;-63
2022/05/19 07:22:59;;;;;;;18.92;13.40;;;;;;;;;;4950993;28;20117;-64
2022/05/19 07:25:26;;;;;;;20.63;14.05;;;;;;;;;;5018195;28;20495;-64
2022/05/19 07:27:52;;;;;;;17.67;12.73;;;;;;;;;;4951858;28;20030;-64
2022/05/19 07:30:18;;;;;;;18.20;12.88;;;;;;;;;;4951564;29;20035;-63
2022/05/19 07:32:44;;;;;;;18.88;13.20;;;;;;;;;;4951628;28;20102;-63
2022/05/19 07:35:12;;;;;;;19.30;13.75;;;;;;;;;;4951849;29;20034;-63
2022/05/19 07:37:39;;;;;;;18.02;13.77;;;;;;;;;;4951357;28;20450;-63
2022/05/19 07:40:05;;;;;;;18.77;13.15;;;;;;;;;;4952363;29;20028;-63
2022/05/19 07:42:31;;;;;;;18.58;13.73;;;;;;;;;;4951361;28;20450;-63
2022/05/19 07:44:57;;;;;;;18.23;13.73;;;;;;;;;;4951768;29;20019;-62
2022/05/19 07:47:23;;;;;;;20.17;14.10;;;;;;;;;;4951254;29;20152;-65
2022/05/19 07:49:54;;;;;;;21.67;14.10;;;;;;;;;;4951652;28;20027;-63
2022/05/19 07:52:20;;;;;;;21.13;13.85;;;;;;;;;;5017722;28;20039;-64
2022/05/19 07:54:46;;;;;;;18.05;13.75;;;;;;;;;;4952184;28;20023;-64
2022/05/19 07:57:12;;;;;;;18.73;13.45;;;;;;;;;;4951381;29;20023;-63
2022/05/19 07:59:38;;;;;;;19.80;14.23;;;;;;;;;;4951601;29;20039;-64
2022/05/19 08:02:05;;;;;;;20.80;13.85;;;;;;;;;;4951690;28;20074;-64
2022/05/19 08:04:31;;;;;;;19.23;13.23;;;;;;;;;;4951501;29;20019;-64
2022/05/19 08:06:57;;;;;;;22.20;14.40;;;;;;;;;;4951566;29;20429;-65
2022/05/19 08:12:07;;;;;;;18.33;14.20;;;;;;;;;;4951766;29;20564;-64
2022/05/19 08:17:19;;;;;;;18.85;13.98;;;;;;;;;;4951688;29;20046;-62
2022/05/19 08:19:47;;;;;;;21.15;14.25;;;;;;;;;;5017535;28;20108;-64
2022/05/19 08:22:13;;;;;;;17.30;13.75;;;;;;;;;;4951561;29;20020;-65
2022/05/19 08:24:40;;;;;;;17.52;14.30;;;;;;;;;;4951506;29;20114;-64
2022/05/19 08:27:06;;;;;;;22.40;14.70;;;;;;;;;;5017143;28;20481;-62
2022/05/19 08:29:32;;;;;;;18.67;14.38;;;;;;;;;;5017155;28;20129;-63
2022/05/19 08:31:58;;;;;;;23.52;15.02;;;;;;;;;;4951254;29;20402;-62
2022/05/19 08:34:24;;;;;;;19.90;14.85;;;;;;;;;;4952594;28;20035;-61
2022/05/19 08:36:50;;;;;;;22.90;15.13;;;;;;;;;;4955079;28;20023;-62
2022/05/19 08:39:18;;;;;;;19.83;14.75;;;;;;;;;;4954462;29;20041;-60
2022/05/19 08:41:47;;;;;;;21.25;14.95;;;;;;;;;;5020935;28;20483;-62
2022/05/19 08:44:25;;;;;;;21.48;14.63;;;;;;;;;;4955085;28;20062;-62
2022/05/19 08:46:53;;;;;;;18.13;14.85;;;;;;;;;;5021631;28;20033;-63
2022/05/19 08:49:19;;;;;;;18.23;15.00;;;;;;;;;;4954895;28;20019;-62
2022/05/19 08:51:56;;;;;;;19.88;14.95;;;;;;;;;;4954776;29;20106;-60
2022/05/19 08:54:24;;;;;;;19.80;14.77;;;;;;;;;;4954330;29;20502;-62
2022/05/19 08:57:16;;;;;;;20.27;15.65;;;;;;;;;;4954558;28;20031;-61
2022/05/19 08:59:45;;;;;;;20.48;15.57;;;;;;;;;;4954512;28;20431;-63
2022/05/19 09:02:14;;;;;;;20.10;13.95;;;;;;;;;;4953486;29;20055;-62
2022/05/19 09:04:59;;;;;;;20.50;14.77;;;;;;;;;;4954089;28;20019;-61
2022/05/19 09:07:57;;;;;;;18.38;14.13;;;;;;;;;;4953668;29;20028;-62
2022/05/19 09:10:28;;;;;;;19.23;14.60;;;;;;;;;;4954171;29;20030;-60
2022/05/19 09:13:01;;;;;;;18.20;14.30;;;;;;;;;;4954396;29;20086;-60
2022/05/19 09:15:28;;;;;;;20.08;14.50;;;;;;;;;;5020721;28;20024;-60
2022/05/19 09:17:54;;;;;;;19.77;15.15;;;;;;;;;;4953866;28;20032;-61
2022/05/19 09:20:29;;;;;;;19.40;13.98;;;;;;;;;;4954291;29;20134;-60
2022/05/19 09:23:00;;;;;;;19.38;14.23;;;;;;;;;;4953882;29;20553;-61
2022/05/19 09:25:26;;;;;;;21.40;15.05;;;;;;;;;;4954246;29;20024;-61
2022/05/19 09:27:52;;;;;;;18.23;14.15;;;;;;;;;;4953624;28;20081;-60
2022/05/19 09:30:37;;;;;;;19.52;14.57;;;;;;;;;;4954218;29;20074;-61
2022/05/19 09:33:07;;;;;;;20.08;14.10;;;;;;;;;;4953781;29;20038;-60
2022/05/19 09:35:38;;;;;;;18.00;14.48;;;;;;;;;;4953796;28;20689;-60
2022/05/19 09:38:07;;;;;;;17.92;13.98;;;;;;;;;;5020062;28;20168;-60
2022/05/19 09:40:36;;;;;;;19.77;14.25;;;;;;;;;;5019902;28;20062;-60
2022/05/19 09:43:06;;;;;;;18.30;14.55;;;;;;;;;;4953507;28;20084;-61
2022/05/19 09:45:37;;;;;;;18.95;13.75;;;;;;;;;;4953090;28;20042;-61
2022/05/19 09:48:08;;;;;;;21.05;14.75;;;;;;;;;;4953327;29;20023;-60
2022/05/19 09:50:43;;;;;;;17.48;14.05;;;;;;;;;;4953527;29;20077;-61
2022/05/19 09:53:13;;;;;;;18.27;14.93;;;;;;;;;;4953515;29;20032;-61
2022/05/19 09:55:39;;;;;;;21.08;14.52;;;;;;;;;;5020125;28;20032;-59
2022/05/19 09:58:07;;;;;;;18.05;14.38;;;;;;;;;;4953085;28;20145;-61
2022/05/19 10:00:36;;;;;;;18.35;14.15;;;;;;;;;;5019791;28;20077;-61
2022/05/19 10:03:03;;;;;;;18.40;13.98;;;;;;;;;;4953147;28;20021;-61
2022/05/19 10:05:35;;;;;;;18.17;14.48;;;;;;;;;;4953612;28;20049;-61
2022/05/19 10:08:05;;;;;;;21.80;14.32;;;;;;;;;;4953351;29;20061;-61
2022/05/19 10:10:32;;;;;;;19.05;13.27;;;;;;;;;;5016041;28;20047;-62
2022/05/19 10:13:02;;;;;;;18.40;13.73;;;;;;;;;;4949439;29;20058;-60
2022/05/19 10:15:35;;;;;;;18.98;14.75;;;;;;;;;;4953463;29;20039;-60
2022/05/19 10:18:22;;;;;;;19.65;14.20;;;;;;;;;;4940556;29;20054;-62
2022/05/19 10:21:15;;;;;;;22.23;14.27;;;;;;;;;;5018228;28;20389;-59
2022/05/19 10:23:47;;;;;;;18.73;14.48;;;;;;;;;;4996433;28;20126;-62
2022/05/19 10:26:28;;;;;;;19.88;13.90;;;;;;;;;;4952742;28;20031;-60
2022/05/19 10:31:59;;;;;;;19.27;14.38;;;;;;;;;;4933750;28;20126;-61
2022/05/19 10:34:25;;;;;;;18.27;14.02;;;;;;;;;;5014925;28;20095;-61
2022/05/19 10:36:57;;;;;;;19.73;14.30;;;;;;;;;;4940579;28;20055;-61
2022/05/19 10:39:26;;;;;;;20.63;14.50;;;;;;;;;;4951313;29;20027;-61
2022/05/19 10:42:01;;;;;;;18.63;13.80;;;;;;;;;;4952694;29;20106;-60
2022/05/19 10:44:38;;;;;;;18.23;13.38;;;;;;;;;;4949764;29;20019;-59
2022/05/19 10:47:23;;;;;;;18.43;14.17;;;;;;;;;;4937526;28;20050;-60
2022/05/19 10:49:59;;;;;;;18.38;14.30;;;;;;;;;;5018231;28;20073;-59
2022/05/19 10:52:34;;;;;;;16.90;12.90;;;;;;;;;;5018178;28;20114;-60
2022/05/19 10:55:03;;;;;;;18.13;13.43;;;;;;;;;;5018427;28;20417;-60
2022/05/19 10:57:30;;;;;;;17.25;13.13;;;;;;;;;;4950796;28;20081;-61
2022/05/19 10:59:56;;;;;;;18.35;14.48;;;;;;;;;;4952643;29;20544;-61
2022/05/19 11:02:31;;;;;;;18.42;13.93;;;;;;;;;;4952018;29;20035;-61
2022/05/19 11:05:15;;;;;;;21.83;13.43;;;;;;;;;;5018269;28;20078;-60
2022/05/19 11:07:44;;;;;;;25.15;14.13;;;;;;;;;;4952180;29;20383;-59
2022/05/19 11:10:29;;;;;;;21.27;13.35;;;;;;;;;;4952195;29;20118;-59
2022/05/19 11:13:12;;;;;;;16.80;12.57;;;;;;;;;;4934460;29;20036;-60
2022/05/19 11:15:45;;;;;;;18.95;13.00;;;;;;;;;;4946014;29;20039;-62
2022/05/19 11:18:14;;;;;;;16.48;12.88;;;;;;;;;;4941672;28;20023;-60
2022/05/19 11:20:59;;;;;;;17.73;13.20;;;;;;;;;;5013028;28;20086;-62
2022/05/19 11:23:37;;;;;;;18.35;12.98;;;;;;;;;;4932938;28;20098;-62
2022/05/19 11:26:23;;;;;;;19.25;14.10;;;;;;;;;;4998575;28;20118;-61
2022/05/19 11:28:53;;;;;;;18.70;14.35;;;;;;;;;;4998145;28;20028;-61
2022/05/19 11:31:26;;;;;;;18.52;14.43;;;;;;;;;;4932916;28;20106;-62
2022/05/19 11:33:53;;;;;;;16.63;13.40;;;;;;;;;;4932456;28;20503;-61
2022/05/19 11:36:22;;;;;;;16.33;13.15;;;;;;;;;;4932640;28;20028;-61
2022/05/19 11:38:57;;;;;;;18.75;14.07;;;;;;;;;;4931924;28;20410;-62
2022/05/19 11:41:25;;;;;;;17.52;13.40;;;;;;;;;;4932590;28;20107;-61
2022/05/19 11:43:51;;;;;;;16.35;13.80;;;;;;;;;;4998264;28;20020;-61
2022/05/19 11:46:26;;;;;;;18.13;13.77;;;;;;;;;;5012962;28;20038;-62
2022/05/19 11:57:31;;;;;;;17.60;13.60;;;;;;;;;;4934272;29;20046;-62
2022/05/19 12:00:00;;;;;;;17.10;13.35;;;;;;;;;;4948552;29;20066;-61
2022/05/19 12:02:29;;;;;;;18.52;13.43;;;;;;;;;;5002746;28;20031;-59
2022/05/19 12:05:01;;;;;;;18.17;14.23;;;;;;;;;;5003493;28;20410;-60
2022/05/19 12:07:35;;;;;;;21.13;13.70;;;;;;;;;;4937978;28;20024;-60
2022/05/19 12:10:01;;;;;;;17.60;13.18;;;;;;;;;;4938608;29;20024;-60
2022/05/19 12:12:30;;;;;;;17.05;13.25;;;;;;;;;;4938011;28;20023;-60
2022/05/19 12:15:09;;;;;;;17.85;13.70;;;;;;;;;;4938189;28;20114;-60
2022/05/19 12:17:41;;;;;;;18.15;13.85;;;;;;;;;;5009002;28;20068;-60
2022/05/19 12:20:27;;;;;;;18.15;13.00;;;;;;;;;;4938138;28;20690;-61
2022/05/19 12:23:26;;;;;;;16.50;13.18;;;;;;;;;;4939609;29;20047;-61
2022/05/19 12:25:54;;;;;;;18.35;14.02;;;;;;;;;;4944556;28;20035;-61
2022/05/19 12:28:20;;;;;;;18.67;13.38;;;;;;;;;;4936408;29;20032;-61
2022/05/19 12:33:49;;;;;;;19.05;14.73;;;;;;;;;;4948650;23;20059;-61
2022/05/19 12:36:25;;;;;;;22.27;13.98;;;;;;;;;;4945589;28;20544;-64
2022/05/19 12:38:51;;;;;;;17.45;13.93;;;;;;;;;;4944774;29;20487;-63
2022/05/19 12:41:24;;;;;;;17.20;13.77;;;;;;;;;;4947014;29;20019;-61
2022/05/19 12:43:51;;;;;;;21.63;14.00;;;;;;;;;;4943039;28;20051;-63
2022/05/19 12:46:38;;;;;;;16.80;13.35;;;;;;;;;;5004198;28;20783;-64
2022/05/19 12:49:31;;;;;;;18.45;13.77;;;;;;;;;;5004137;28;20145;-65
2022/05/19 12:52:02;;;;;;;19.35;13.48;;;;;;;;;;5004361;28;20039;-64
2022/05/19 12:54:31;;;;;;;17.58;13.60;;;;;;;;;;4594940;28;9999873;-64
2022/05/19 12:56:59;;;;;;;18.52;13.82;;;;;;;;;;4937125;28;20024;-63
2022/05/19 12:59:39;;;;;;;17.02;13.45;;;;;;;;;;4938557;28;20399;-63
2022/05/19 13:02:08;;;;;;;17.52;14.10;;;;;;;;;;4938374;29;20023;-62
2022/05/19 13:04:38;;;;;;;18.40;13.98;;;;;;;;;;4936277;28;20031;-64
2022/05/19 13:07:09;;;;;;;18.02;13.95;;;;;;;;;;4941963;29;20035;-62
2022/05/19 13:09:35;;;;;;;17.35;13.70;;;;;;;;;;4939179;29;20031;-63
2022/05/19 13:12:04;;;;;;;19.15;14.48;;;;;;;;;;4939981;28;20031;-62
2022/05/19 13:14:35;;;;;;;17.17;13.43;;;;;;;;;;4939162;29;20028;-64
2022/05/19 13:17:05;;;;;;;17.02;13.40;;;;;;;;;;4938714;28;20081;-65
2022/05/19 13:19:32;;;;;;;17.00;13.95;;;;;;;;;;4937565;28;20028;-64
2022/05/19 13:22:08;;;;;;;18.23;13.90;;;24.30;91.20;;;;;;4944365;29;20188;-64
2022/05/19 13:24:41;;;;;;;19.10;14.63;;;33.00;69.30;;;;;;4943192;29;20024;-62
2022/05/19 13:32:38;;;;;;;17.58;14.23;;;30.60;74.00;;;;;;4942931;29;20035;-63
2022/05/19 13:35:13;;;;;;;17.88;13.50;;;30.30;74.90;;;;;;4942065;28;20040;-62
2022/05/19 13:37:42;;;;;;;16.23;12.95;;;30.00;75.50;;;;;;5009629;28;20042;-64
2022/05/19 13:40:29;;;;;;;21.08;12.50;;;29.70;76.50;;;;;;4598313;28;9999984;-65
2022/05/19 13:43:01;;;;;;;41.78;14.07;;;;;;;;;;5007423;28;20020;-65
2022/05/19 13:45:38;;;;;;;21.95;12.63;;;;;;;;;;4940602;28;20043;-59
2022/05/19 13:48:31;;;;;;;37.00;29.63;;;;;;;;;;5007150;28;20105;-60
2022/05/19 13:50:58;;;;;;;42.33;38.92;;;;;;;;;;4976607;28;20028;-59
2022/05/19 13:53:24;;;;;;;50.15;46.35;;;;;;;;;;4931051;29;20530;-58
2022/05/19 13:55:58;;;;;;;56.00;52.00;;;;;;;;;;4931398;29;20531;-61
2022/05/19 13:58:25;;;;;;;60.83;56.22;;;;;;;;;;4949552;28;20039;-58
2022/05/19 14:00:51;;;;;;;56.20;51.47;;;;;;;;;;4949623;29;20027;-57
2022/05/19 14:03:18;;;;;;;54.67;51.25;;;;;;;;;;4930721;28;20028;-57
2022/05/19 14:05:44;;;;;;;58.17;54.58;;;;;;;;;;4930783;28;20035;-56
2022/05/19 14:08:12;;;;;;;50.00;46.80;;;;;;;;;;4930455;29;20054;-57
2022/05/19 14:10:42;;;;;;;47.17;44.08;;;;;;;;;;4931438;28;20032;-61
2022/05/19 14:13:11;;;;;;;48.47;45.38;;;;;;;;;;4930691;28;20051;-60
2022/05/19 14:15:41;;;;;;;42.58;39.72;;;;;;;;;;4931315;29;20034;-58
2022/05/19 14:18:10;;;;;;;41.25;38.45;;;29.30;78.00;;;;;;4930915;29;20119;-56
2022/05/19 14:20:50;;;;;;;40.70;37.95;;;22.50;99.90;;;;;;4930716;29;20107;-55
2022/05/19 14:23:28;;;;;;;38.45;35.75;;;21.80;99.90;;;;;;4995647;28;20028;-56
2022/05/19 14:26:05;;;;;;;38.40;35.80;;;21.50;99.90;;;;;;4930922;28;20069;-59
2022/05/19 14:28:41;;;;;;;38.63;36.03;;;21.50;99.90;;;;;;4930316;29;20085;-59
2022/05/19 14:31:09;;;;;;;40.42;37.65;;;21.30;99.90;;;;;;4930773;28;20043;-61
2022/05/19 14:33:58;;;;;;;39.17;36.47;;;21.10;99.90;;;;;;4995475;28;20031;-59
2022/05/19 14:36:27;;;;;;;38.55;35.92;;;20.80;99.90;;;;;;4930829;28;20035;-59
2022/05/19 14:39:03;;;;;;;37.85;35.25;;;20.70;99.90;;;;;;4930217;28;20107;-62
2022/05/19 14:44:22;;;;;;;40.80;38.00;;;20.80;99.90;;;;;;4930822;28;20075;-62
2022/05/19 14:47:02;;;;;;;40.92;38.22;;;20.80;99.90;;;;;;4930834;28;20202;-61
2022/05/19 14:49:32;;;;;;;40.72;38.03;;;20.80;99.90;;;;;;4930678;29;20476;-62
2022/05/19 14:51:59;;;;;;;41.28;38.58;;;20.70;99.90;;;;;;4996422;28;20155;-61
2022/05/19 14:54:25;;;;;;;39.65;36.95;;;20.60;99.90;;;;;;4929937;29;20444;-61